This is the latest recevied weather packets stored in our database for station/object DL8FX-6. If no packets are shown the sender has not sent any weather packets the latest 10 day(s).
| Time | Temp. | Humidity | Pressure | Rain* | Wind** | Luminosity | Snow |
|---|---|---|---|---|---|---|---|
| 1777638687 | 25.56° C | 29% | 1025.6 hPa | 0 mm | - | - | - |
| 1777636250 | 25° C | 30% | 1025.8 hPa | 0 mm | - | - | - |
| 1777633834 | 24.44° C | 30% | 1026.2 hPa | 0 mm | - | - | - |
| 1777632062 | 24.44° C | 31% | 1026.7 hPa | 0 mm | - | - | - |
| 1777630873 | 23.33° C | 33% | 1026.8 hPa | 0 mm | - | - | - |
| 1777623624 | 22.78° C | 33% | 1027.4 hPa | 0 mm | - | - | - |
| 1777622475 | 21.11° C | 38% | 1027.5 hPa | 0 mm | - | - | - |
| 1777620664 | 21.11° C | 38% | 1027.4 hPa | 0 mm | - | - | - |
| 1777620060 | 21.67° C | 38% | 1027.5 hPa | 0 mm | - | - | - |
| 1777617644 | 21.11° C | 40% | 1027.6 hPa | 0 mm | - | - | - |
| 1777617040 | 20° C | 41% | 1027.5 hPa | 0 mm | - | - | - |
| 1777614020 | 16.67° C | 63% | 1027.4 hPa | 0 mm | - | - | - |
| 1777613416 | 15° C | 72% | 1027.4 hPa | 0 mm | - | - | - |
| 1777612269 | 8.33° C | 92% | 1027.3 hPa | 0 mm | - | - | - |
| 1777607438 | 3.33° C | 91% | 1027.3 hPa | 0 mm | - | - | - |
| 1777603291 | 3.89° C | 91% | 1027.3 hPa | 0 mm | - | - | - |
| 1777598439 | 5° C | 88% | 1027.2 hPa | 0 mm | - | - | - |
| 1777596023 | 5.56° C | 88% | 1027 hPa | 0 mm | - | - | - |
| 1777593687 | 6.11° C | 89% | 1027.1 hPa | 0 mm | - | - | - |
| 1777586418 | 7.78° C | 76% | 1027.3 hPa | 0 mm | - | - | - |
| 1777584063 | 8.33° C | 73% | 1027.3 hPa | 0 mm | - | - | - |
| 1777583459 | 8.89° C | 73% | 1027.3 hPa | 0 mm | - | - | - |
| 1777579231 | 10° C | 71% | 1027.2 hPa | 0 mm | - | - | - |
| 1777573855 | 14.44° C | 52% | 1026.6 hPa | 0 mm | - | - | - |
| 1777573251 | 15° C | 50% | 1026.5 hPa | 0 mm | - | - | - |
* Rain latest hour (hover to see other rain measurements)
** Current wind speed in m/s (hover to see current wind gust speed)